Latest METARs, TAFs and NOTAMs for LIRQ


---------------------------------------------------------------------------
	(OBSERVATIONS)
LIRQ 171450Z 26004KT 220V310 CAVOK 16/05 Q1027=
LIRQ 171420Z 29003KT 240V350 CAVOK 16/03 Q1027=
LIRQ 171350Z VRB03KT CAVOK 15/04 Q1027=
LIRQ 171320Z VRB03KT CAVOK 15/03 Q1028=
LIRQ 171250Z 24004KT 190V290 CAVOK 15/05 Q1028=
LIRQ 171220Z VRB02KT CAVOK 14/04 Q1029=
---------------------------------------------------------------------------
	(FC)
Sorry, FC For LIRQ Not Found
---------------------------------------------------------------------------
	(TERMINAL AREA FORECAST)
LIRQ 171100Z 1712/1812 VRB05KT CAVOK
    BECMG 1721/1723 4000 BR
    TEMPO 1800/1806 1500
    BECMG 1808/1810 9999=
---------------------------------------------------------------------------
	(NOTAMS)


LIRQ B0204/19 ACFT STANDS 201, 203 AND 206 MAX ACFT ALLOWED TYPE
    GLEX/RJ85. REF AIP AD 2 LIRQ 2-7. 10 JAN 16:58 2019 UNTIL
    01 APR 22:59 2019 ESTIMATED. CREATED: 10 JAN 16:58 2019

LIRQ B0454/19 LDG OPS FOR RWY23 AVBL AS FLW: -IFR TFC NOT ALLOWED
    -VFR TFC ALLOWED WITH HEL OR LOCAL AEROCLUB ACFT ONLY REF
    AIP AD 2 LIRQ 2-1 AND 1-12. DAILY SR-SS, 24 JAN 10:57 2019
    UNTIL 22 APR 18:07 2019 ESTIMATED. CREATED: 24 JAN 10:58
    2019

LIRQ B0456/19 CIRCLING RWY 23 TEMPORARILY NOT ALLOWED FOR FLW
    INSTRUMENT APPROACH PROCEDURES: - ILS Z RWY 05 CAT A/B/C
    - ILS Y RWY 05 CAT A/B/C - RNAV (GNSS) Z RWY 05 CAT A/B/C
    - RNAV (GNSS) Y RWY 05 CAT A/B/C - VOR RWY 05 CAT A/B/C -
    LOC Z RWY 05 CAT A/B/C - LOC Y RWY 05 CAT A/B/C REF AIP AD
    2 LIRQ 5. 24 JAN 12:07 2019 UNTIL 24 MAR 23:59 2019 ESTIMATED.
    CREATED: 24 JAN 12:08 2019

LIRQ B0473/19 OBSTACLE POLE PENETRATING TAKE OFF FLIGHT PATH
    AREA RWY 23 PSN 2255.9M AFTER THR 23 AND 12.5M RIGHT SIDE
    RCL ON TAKE OFF DIRECTION COORD (WGS-84) 434751.9N 0111109.1E
    MAX ELEV AGL 24.0M/78.7FT MAX ELEV AMSL 60.0M/196.8FT RMK:
    ICAO SIGNAL PROVIDED REF AIP AD 2 LIRQ 3-1. 25 JAN 11:19
    2019 UNTIL PERM. CREATED: 25 JAN 11:19 2019

LIRQ B0737/19 RUNWAY THR IDENTIFICATION LGT (RTIL) RWY05 UNSERVICEABLE
    REF AIP AD 2 LIRQ 1-6. 04 FEB 14:28 2019 UNTIL 18 FEB 15:00
    2019 ESTIMATED. CREATED: 04 FEB 14:28 2019

LIRQ B2184/17 REF AOC TYPE B NR RQ 3/3 NEW OBSTACLE ERECTED BUILDING
    PENETRATING TAKE-OFF CLIMB SURFACE RWY05 (IN CURVE) POINTS
    PSN COORD (WGS-84): - 434929.7N 0111314.4E - 434928.3N 0111316.0E
    - 434929.2N 0111317.1E - 434930.4N 0111315.5E - 434929.7N
    0111314.4E MAX ELEV AGL 16.6M/54.5FT MAX ELEV AMSL 75.1M/246.4FT
    ICAO SIGNAL UNPROVIDED. 03 MAY 08:27 2017 UNTIL PERM. CREATED:
    03 MAY 08:27 2017

LIRQ B4747/18 REF AIP AD2 LIRQ 2-1 AERODROME CHART ICAO 'MARKING
    AIDS' DELETE AIMING POINT MARKING RWY23. 29 AUG 03:00 2018
    UNTIL PERM. CREATED: 13 AUG 10:02 2018

LIRQ B4751/18 REF AIP AD 2 LIRQ 2-1 AERODROME CHART ICAO 'MARKING
    AIDS' IMPLEMENTED TDZ MARKINGS RWY05. 29 AUG 03:00 2018 UNTIL
    PERM. CREATED: 13 AUG 11:53 2018

LIRQ B4762/18 FOLLOW CHIMNEY PENETRATING INNER HORIZONTAL SURFACE
    COMPLETELY WITHDRAWN. - PSN COORD (WGS-84): 434726.4N 0111338.1E
    - ELEV 95.0M/311.7FT AMSL REF AIP AOC TYPE B NR RQ 3/3. 14
    AUG 12:17 2018 UNTIL PERM. CREATED: 14 AUG 12:17 2018

LIRQ B6516/18 REF AOC TYPE B NR RQ 3/3 NEW OBSTACLE CRANE PENETRATING
    INNER HORIZONTAL SURFACE PSN COORD (WGS-84): 434822.4N 0111449.2E
    ELEV AGL 38.6M/126.6FT ELEV AMSL 102.5M/336.3FT ROTATING
    JIB 54M ICAO SIGNAL PROVIDED. 19 NOV 00:00 2018 UNTIL PERM.
    CREATED: 07 NOV 11:00 2018

LIRQ B7758/18 EDGE LIGHTS ON APRON 100, 200 AND 300 UNSERVICEABLE
    DUE TO WIP REF AIP AD2 LIRQ 2-5. 24 DEC 12:02 2018 UNTIL
    23 MAR 22:59 2019 ESTIMATED. CREATED: 24 DEC 12:02 2018

LIRQ B7810/18 FIRENZE TWR WILL PROVIDE, ON PILOT'S SPECIFIC REQUEST
    AND ON TRIAL BASIS, 'TAIL' AND 'CROSS' COMPONENTS OF THE
    SURFACE WIND, AS INDICATED ON LOCAL ATS DISPLAYS. 'TAIL'
    AND 'CROSS' COMPONENTS ARE RISPECTIVELY DIRECTED: - ALONG
    THE RWY CENTRE LINE, FOR THE TAIL WIND - PERPENDICULARLY
    TO THE RWY CENTRE LINE, FOR THE CROSS WIND TAIL COMPONENT
    DIRECTION CORRESPONDS TO THE DIRECTION OF RWY UTILIZATION.
    CROSS/TAIL COMPONENTS: - ARE OBTAINED FROM THE 2 MINUTES
    AVERAGE SURFACE WIND, MEASURED AS IN AIP GEN 3.5.3, PARAGRAPH
    3.1.1, POINT 'A', NOT TAKING GUSTS INTO ACCOUNT - ARE NOT
    AVAILABLE WHEN THE 2 MINUTES AVERAGE SURFACE WIND IS REPORTED
    'VRB' OR 'CALM' PILOT'S PHRASEOLOGY FOR TAIL/CROSS WIND COMPONENTS
    REQUEST IS: 'FIRENZE TWR, (AIRCRAFT IDENTIFICATION) REQUEST
    TAIL/CROSS WIND' TWR PHRASEOLOGY TO ANSWER PILOT'S REQUEST
    IS: '(AIRCRAFT IDENTIFICATION) WIND (DIRECTION) DEGREES (SPEED)
    KNOTS, TAIL/CROSS WIND (SPEED) KNOTS'. 27 DEC 15:13 2018
    UNTIL 26 MAR 23:59 2019 ESTIMATED. CREATED: 27 DEC 15:13
    2018

LIRQ B7834/18 LDG RWY05 ARE PERMITTED FOR GENERAL AVIATION FLIGHTS
    IF TAIL WIND COMPONENT IS LOWER OR EQUAL TO 12KT. RMK: INFO
    ABOUT TAIL WIND COMPONENT AVBL ON PILOT'S REQUEST TO ATC
    ACCORDING TO NOTAM B7810/18 REF AIP AD 2 LIRQ 1-12. 28 DEC
    19:00 2018 UNTIL 26 MAR 22:59 2019 ESTIMATED. CREATED: 28
    DEC 12:02 2018

---------------------------------------------------------------------------